Terminal Aerodrome Forecast
Issued by NWS

Home | Current Version | Previous Version | Text Only | Print | Product List | Glossary On
Versions: 1 2 3 4 5 6 7 8 9 10 11 12
328
FTUS42 TJSJ 231152
TAFJSJ
TAF
TJSJ 231152Z 2312/2412 13003KT P6SM FEW025 FEW035 FEW080
     FM231300 08013KT P6SM VCSH FEW025 SCT050
     FM232300 10008KT P6SM FEW025 FEW050=

USA.gov is the U.S. government's official web portal to all federal, state and local government web resources and services.